• Join FlightAware (Why Join?)
  • Login
  • US Flag 
11:44AM EDT


 

Airport Tracker/Info


-or-


 

Live Flight TrackerFlight Track Log ✈ CTL61 ✈ 15-Apr-2013 ✈ KCRW - KOSU

Flight Track Log - Related Links

Times and Time Zones

All times are in EDT time to prevent confusion due to time zone crossing. See the CTL61 flight status page for this flight to view local times or setup timezone preferences in your user account.

Time Position Orientation Groundspeed Altitude Reporting Facility
EDT Latitude Longitude Course Direction KTS MPH feet Rate Location/Type
12:10AM 38.4472 -81.6758 327° Northwest 152 175 3,700  Level Indianapolis Center
12:11AM 38.4819 -81.7025 329° Northwest 148 170 4,500 840 Climbing Indianapolis Center
12:12AM 38.5131 -81.7294 326° Northwest 139 160 5,400 840 Climbing Indianapolis Center
12:13AM 38.5921 -81.7722 326° Northwest  Level FlightAware Approximate
12:13AM 38.5408 -81.7519 328° Northwest 123 142 6,300  Level Indianapolis Center
12:14AM 38.6294 -81.8048 326° Northwest  Level FlightAware Approximate
12:14AM 38.5681 -81.7756 326° Northwest 118 136 7,000  Level Indianapolis Center
12:15AM 38.5958 -81.7986 327° Northwest 119 137 7,600 420 Climbing Indianapolis Center
12:16AM 38.6308 -81.8281 327° Northwest 127 146 7,900 180 Climbing Indianapolis Center
12:17AM 38.6667 -81.8572 328° Northwest 148 170 8,000  Climbing Indianapolis Center
12:18AM 38.7028 -81.8872 327° Northwest 153 176 8,000  Level Indianapolis Center
12:19AM 38.7392 -81.9178 327° Northwest 155 178 8,000  Level Indianapolis Center
12:20AM 38.7761 -81.9478 328° Northwest 156 180 8,000  Level Indianapolis Center
12:21AM 38.8136 -81.9775 328° Northwest 158 182 8,000  Level Indianapolis Center
12:22AM 38.8497 -82.0075 327° Northwest 156 180 8,000  Level Indianapolis Center
12:23AM 38.8867 -82.0367 328° Northwest 156 180 8,000  Level Indianapolis Center
12:25AM 38.9594 -82.0989 326° Northwest 157 181 8,100  Climbing Indianapolis Center
12:26AM 38.9961 -82.1294 327° Northwest 156 180 8,100 -60 Level Indianapolis Center
12:27AM 39.0317 -82.1600 326° Northwest 155 178 8,000 -60 Descending Indianapolis Center
12:28AM 39.0681 -82.1906 327° Northwest 154 177 8,000  Level Indianapolis Center
12:29AM 39.1047 -82.2194 329° Northwest 154 177 8,000  Level Indianapolis Center
12:30AM 39.1428 -82.2492 329° Northwest 159 183 8,000  Level Indianapolis Center
12:31AM 39.1781 -82.2781 328° Northwest 152 175 8,000  Level Indianapolis Center
12:32AM 39.2139 -82.3097 326° Northwest 154 177 8,000  Level Indianapolis Center
12:33AM 39.2508 -82.3397 328° Northwest 155 178 8,000  Level Indianapolis Center
12:34AM 39.2864 -82.3717 325° Northwest 156 180 8,000  Level Indianapolis Center
12:35AM 39.3219 -82.4028 326° Northwest 155 178 8,000 60 Level Indianapolis Center
12:35AM 39.3342 -82.4144 324° Northwest 153 176 8,100 60 Climbing Indianapolis Center
12:36AM 39.3567 -82.4339 326° Northwest 153 176 8,100 -120 Level Indianapolis Center
12:36AM 39.3756 -82.4511 325° Northwest 154 177 8,000 -120 Descending Indianapolis Center
12:37AM 39.3944 -82.4661 328° Northwest 159 183 8,000 60 Level Indianapolis Center
12:37AM 39.4133 -82.4822 327° Northwest 159 183 8,100 60 Climbing Indianapolis Center
12:38AM 39.4336 -82.5000 326° Northwest 155 178 8,100  Level Indianapolis Center
12:38AM 39.4469 -82.5128 323° Northwest 153 176 8,100 -120 Level Indianapolis Center
12:39AM 39.4697 -82.5319 327° Northwest 155 178 8,000 -120 Descending Indianapolis Center
12:39AM 39.4825 -82.5461 319° Northwest 156 180 8,000  Level Indianapolis Center
12:40AM 39.5058 -82.5653 328° Northwest 157 181 8,000 60 Level Indianapolis Center
12:40AM 39.5203 -82.5772 327° Northwest 159 183 8,100  Climbing Indianapolis Center
12:41AM 39.5431 -82.5964 327° Northwest 158 182 8,000 -120 Descending Indianapolis Center
12:41AM 39.5578 -82.6111 322° Northwest 158 182 8,000  Level Indianapolis Center
12:42AM 39.5792 -82.6292 327° Northwest 157 181 8,000  Level Indianapolis Center
12:42AM 39.5956 -82.6422 328° Northwest 158 182 8,000 -240 Level Indianapolis Center
12:43AM 39.6169 -82.6619 325° Northwest 161 185 7,800 -540 Descending Indianapolis Center
12:43AM 39.6331 -82.6761 326° Northwest 167 192 7,500 -720 Descending Indianapolis Center
12:44AM 39.6575 -82.6983 325° Northwest 172 198 7,100 -600 Descending Indianapolis Center
12:44AM 39.6744 -82.7131 326° Northwest 182 209 6,900 -540 Descending Indianapolis Center
12:45AM 39.6997 -82.7358 325° Northwest 180 207 6,600 -540 Descending Indianapolis Center
12:45AM 39.7161 -82.7503 326° Northwest 183 211 6,400 -420 Descending Indianapolis Center
12:46AM 39.7419 -82.7717 328° Northwest 180 207 6,200 -300 Descending Indianapolis Center
12:47AM 39.7575 -82.7875 322° Northwest 175 201 6,100 -240 Descending Indianapolis Center
12:47AM 39.7814 -82.8069 328° Northwest 174 200 6,000 -120 Descending Indianapolis Center
12:48AM 39.7950 -82.8214 321° Northwest 170 196 6,000  Level Indianapolis Center
12:48AM 39.8200 -82.8403 330° Northwest 169 194 6,000  Level Indianapolis Center
12:49AM 39.8367 -82.8561 324° Northwest 161 185 6,000  Level Indianapolis Center
12:49AM 39.8558 -82.8736 325° Northwest 160 184 6,000  Level Indianapolis Center
12:50AM 39.8722 -82.8872 327° Northwest 158 182 6,000  Level Indianapolis Center
12:50AM 39.8864 -82.9025 320° Northwest 160 184 6,000  Level Indianapolis Center
12:52AM 39.9338 -82.9452 325° Northwest  Level FlightAware Approximate
12:59AM 40.0667 -83.0667 323° Northwest  Level FlightAware Approximate
01:00AM 40.0798 -83.0732 323° Northwest  Level Estimated